createdAt,value
2019-01-18T00:00:21.975Z,89.02
2019-01-18T00:01:28.471Z,89.47
2019-01-18T00:02:34.640Z,89.37
2019-01-18T00:03:41.062Z,88.86
2019-01-18T00:04:47.716Z,89.32
2019-01-18T00:05:54.493Z,89.54
2019-01-18T00:07:00.843Z,89.37
2019-01-18T00:08:06.578Z,89.11
2019-01-18T00:09:12.612Z,89.15
2019-01-18T00:10:18.999Z,89.39
2019-01-18T00:11:25.129Z,89.78
2019-01-18T00:12:31.544Z,88.95
2019-01-18T00:13:37.878Z,89.29
2019-01-18T00:14:44.232Z,89.35
2019-01-18T00:15:49.966Z,89.60
2019-01-18T00:16:57.178Z,90.08
2019-01-18T00:18:02.794Z,90.24
2019-01-18T00:19:09.186Z,90.42
2019-01-18T00:20:14.873Z,90.16
2019-01-18T00:21:21.215Z,89.99
2019-01-18T00:22:27.587Z,89.41
2019-01-18T00:23:33.937Z,89.65
2019-01-18T00:24:40.285Z,89.42
2019-01-18T00:25:46.625Z,90.21
2019-01-18T00:26:52.970Z,90.15
2019-01-18T00:28:00.090Z,90.03
2019-01-18T00:29:05.999Z,90.15
2019-01-18T00:30:21.546Z,89.83
2019-01-18T00:31:27.877Z,88.90
2019-01-18T00:32:34.236Z,88.07
2019-01-18T00:33:40.234Z,88.51
2019-01-18T00:34:46.578Z,89.23
2019-01-18T00:35:52.890Z,89.24
2019-01-18T00:36:59.693Z,89.06
2019-01-18T00:38:06.579Z,89.06
2019-01-18T00:39:13.014Z,89.08
2019-01-18T00:40:18.722Z,88.84
2019-01-18T00:41:25.106Z,88.81
2019-01-18T00:42:31.430Z,89.21
2019-01-18T00:43:37.865Z,88.61
2019-01-18T00:44:44.223Z,88.69
2019-01-18T00:45:50.945Z,88.68
2019-01-18T00:46:57.830Z,87.91
2019-01-18T00:48:03.779Z,87.61
2019-01-18T00:49:09.757Z,88.06
2019-01-18T00:50:15.471Z,88.85
2019-01-18T00:51:21.829Z,88.71
2019-01-18T00:52:28.243Z,87.98
2019-01-18T00:53:34.613Z,87.71
2019-01-18T00:54:41.952Z,88.00
2019-01-18T00:55:48.293Z,88.18
2019-01-18T00:56:54.645Z,88.06
2019-01-18T00:58:00.949Z,88.82
2019-01-18T00:59:07.029Z,88.23
2019-01-18T01:00:17.963Z,87.95
2019-01-18T01:01:24.511Z,87.74
2019-01-18T01:02:30.619Z,88.37
2019-01-18T01:03:36.986Z,88.42
2019-01-18T01:04:43.016Z,88.19
2019-01-18T01:05:48.994Z,88.66
2019-01-18T01:06:55.370Z,88.39
2019-01-18T01:08:01.017Z,87.90
2019-01-18T01:09:07.099Z,88.30
2019-01-18T01:10:13.920Z,88.75
2019-01-18T01:11:19.842Z,88.52
2019-01-18T01:12:26.146Z,88.50
2019-01-18T01:13:32.559Z,89.25
2019-01-18T01:14:38.907Z,89.54
2019-01-18T01:15:44.890Z,89.45
2019-01-18T01:16:51.224Z,88.96
2019-01-18T01:17:57.569Z,89.00
2019-01-18T01:19:03.955Z,88.50
2019-01-18T01:20:09.631Z,89.19
2019-01-18T01:21:15.992Z,88.78
2019-01-18T01:22:22.002Z,89.55
2019-01-18T01:23:27.973Z,89.01
2019-01-18T01:24:34.306Z,88.27
2019-01-18T01:25:40.320Z,87.99
2019-01-18T01:26:46.678Z,87.98
2019-01-18T01:27:52.292Z,88.58
2019-01-18T01:28:58.848Z,88.93
2019-01-18T01:30:10.567Z,89.15
2019-01-18T01:31:16.896Z,89.09
2019-01-18T01:32:23.270Z,89.41
2019-01-18T01:33:29.647Z,89.03
2019-01-18T01:34:35.697Z,88.77
2019-01-18T01:35:41.751Z,88.42
2019-01-18T01:36:48.064Z,88.56
2019-01-18T01:37:53.679Z,88.62
2019-01-18T01:39:00.107Z,89.01
2019-01-18T01:40:05.754Z,88.88
2019-01-18T01:41:12.117Z,88.83
2019-01-18T01:42:18.115Z,88.84
2019-01-18T01:43:24.148Z,88.50
2019-01-18T01:44:30.543Z,89.22
2019-01-18T01:45:36.861Z,89.68
2019-01-18T01:46:43.235Z,89.24
2019-01-18T01:47:48.960Z,88.30
2019-01-18T01:48:55.288Z,87.60
2019-01-18T01:50:01.591Z,88.18
2019-01-18T01:51:07.947Z,88.93
2019-01-18T01:52:14.924Z,89.10
2019-01-18T01:53:21.744Z,89.00
2019-01-18T01:54:28.124Z,89.15
2019-01-18T01:55:34.496Z,89.11
2019-01-18T01:56:41.085Z,89.69
2019-01-18T01:57:47.205Z,88.75
2019-01-18T01:58:53.582Z,89.02
2019-01-18T01:59:59.957Z,88.74
2019-01-18T02:01:06.964Z,88.51
2019-01-18T02:02:13.307Z,88.33
2019-01-18T02:03:19.663Z,89.15
2019-01-18T02:04:26.002Z,89.31
2019-01-18T02:05:32.000Z,89.85
2019-01-18T02:06:38.401Z,90.19
2019-01-18T02:07:44.388Z,89.57
2019-01-18T02:08:50.737Z,90.19
2019-01-18T02:09:57.096Z,90.35
2019-01-18T02:11:03.439Z,90.83
2019-01-18T02:12:09.727Z,90.40
2019-01-18T02:13:16.485Z,90.01
2019-01-18T02:14:22.870Z,89.37
2019-01-18T02:15:29.207Z,89.45
2019-01-18T02:16:35.564Z,89.25
2019-01-18T02:17:41.605Z,89.49
2019-01-18T02:18:47.984Z,89.39
2019-01-18T02:19:54.390Z,89.25
2019-01-18T02:21:00.724Z,89.40
2019-01-18T02:22:06.402Z,89.15
2019-01-18T02:23:12.766Z,89.02
2019-01-18T02:24:18.826Z,87.54
2019-01-18T02:25:24.818Z,86.48
2019-01-18T02:26:31.172Z,86.87
2019-01-18T02:27:37.198Z,87.83
2019-01-18T02:28:43.540Z,87.42
2019-01-18T02:29:56.406Z,87.01
2019-01-18T02:30:56.305Z,87.59
2019-01-18T02:32:02.684Z,87.38
2019-01-18T02:33:09.051Z,87.45
2019-01-18T02:34:15.434Z,87.52
2019-01-18T02:35:21.768Z,85.76
2019-01-18T02:36:28.084Z,84.76
2019-01-18T02:37:35.055Z,84.61
2019-01-18T02:38:41.415Z,85.22
2019-01-18T02:39:47.814Z,85.54
2019-01-18T02:40:54.590Z,85.73
2019-01-18T02:42:00.907Z,86.14
2019-01-18T02:43:07.225Z,87.17
2019-01-18T02:44:13.590Z,87.96
2019-01-18T02:45:19.313Z,88.37
2019-01-18T02:46:25.653Z,88.91
2019-01-18T02:47:32.009Z,89.44
2019-01-18T02:48:38.362Z,89.43
2019-01-18T02:49:44.821Z,89.60
2019-01-18T02:50:51.202Z,91.17
2019-01-18T02:51:57.199Z,93.46
2019-01-18T02:53:03.549Z,96.13
2019-01-18T02:54:09.886Z,98.01
2019-01-18T02:55:16.936Z,97.88
2019-01-18T02:56:24.064Z,98.66
2019-01-18T02:57:30.403Z,99.76
2019-01-18T02:58:36.739Z,99.31
2019-01-18T02:59:43.106Z,99.51
2019-01-18T03:00:49.421Z,99.17
2019-01-18T03:01:55.347Z,99.84
2019-01-18T03:03:01.688Z,100.00
2019-01-18T03:04:07.734Z,100.00
2019-01-18T03:05:13.466Z,98.95
2019-01-18T03:06:19.542Z,99.19
2019-01-18T03:07:25.913Z,99.19
2019-01-18T03:08:31.593Z,99.61
2019-01-18T03:09:38.015Z,99.39
2019-01-18T03:10:44.426Z,99.58
2019-01-18T03:11:50.774Z,99.29
2019-01-18T03:12:57.113Z,99.02
2019-01-18T03:14:03.105Z,99.12
2019-01-18T03:15:08.752Z,99.54
2019-01-18T03:16:15.053Z,99.42
2019-01-18T03:17:21.618Z,98.30
2019-01-18T03:18:27.767Z,98.36
2019-01-18T03:19:33.828Z,98.29
2019-01-18T03:20:40.242Z,98.48
2019-01-18T03:21:46.616Z,98.40
2019-01-18T03:22:52.986Z,98.38
2019-01-18T03:23:59.348Z,98.56
2019-01-18T03:25:05.095Z,98.99
2019-01-18T03:26:11.524Z,99.43
2019-01-18T03:27:17.892Z,99.97
2019-01-18T03:28:24.251Z,100.00
2019-01-18T03:29:30.676Z,100.00
2019-01-18T03:30:37.077Z,99.74
2019-01-18T03:31:43.499Z,99.57
2019-01-18T03:32:49.191Z,99.83
2019-01-18T03:33:55.538Z,100.00
2019-01-18T03:35:02.011Z,100.00
2019-01-18T03:36:08.377Z,100.00
2019-01-18T03:37:15.071Z,99.72
2019-01-18T03:38:22.013Z,100.00
2019-01-18T03:39:29.012Z,100.00
2019-01-18T03:40:35.917Z,100.00
2019-01-18T03:41:42.251Z,100.00
2019-01-18T03:42:47.901Z,100.00
2019-01-18T03:43:53.553Z,100.00
2019-01-18T03:44:59.942Z,99.99
2019-01-18T03:46:06.307Z,100.00
2019-01-18T03:47:12.878Z,100.00
2019-01-18T03:48:19.243Z,100.00
2019-01-18T03:49:25.567Z,100.00
2019-01-18T03:50:31.957Z,100.00
2019-01-18T03:51:38.324Z,100.00
2019-01-18T03:52:44.347Z,100.00
2019-01-18T03:53:50.793Z,100.00
2019-01-18T03:54:57.145Z,100.00
2019-01-18T03:56:03.540Z,100.00
2019-01-18T03:57:09.925Z,100.00
2019-01-18T03:58:16.305Z,100.00
2019-01-18T03:59:22.631Z,100.00
2019-01-18T04:00:29.165Z,100.00
2019-01-18T04:01:35.809Z,100.00
2019-01-18T04:02:42.210Z,100.00
2019-01-18T04:03:50.230Z,100.00
2019-01-18T04:04:56.584Z,100.00
2019-01-18T04:06:02.648Z,100.00
2019-01-18T04:07:08.651Z,100.00
2019-01-18T04:08:14.706Z,100.00
2019-01-18T04:09:21.086Z,100.00
2019-01-18T04:10:27.718Z,100.00
2019-01-18T04:11:34.266Z,100.00
2019-01-18T04:12:40.764Z,100.00
2019-01-18T04:13:47.153Z,100.00
2019-01-18T04:14:53.572Z,100.00
2019-01-18T04:15:59.996Z,100.00
2019-01-18T04:17:06.340Z,100.00
2019-01-18T04:18:12.664Z,100.00
2019-01-18T04:19:19.004Z,100.00
2019-01-18T04:20:24.630Z,100.00
2019-01-18T04:21:31.498Z,100.00
2019-01-18T04:22:37.961Z,100.00
2019-01-18T04:23:44.170Z,100.00
2019-01-18T04:24:50.528Z,100.00
2019-01-18T04:25:56.986Z,100.00
2019-01-18T04:27:03.343Z,100.00
2019-01-18T04:28:09.720Z,100.00
2019-01-18T04:29:16.221Z,100.00
2019-01-18T04:30:21.976Z,100.00
2019-01-18T04:31:28.374Z,100.00
2019-01-18T04:32:34.766Z,100.00
2019-01-18T04:33:41.727Z,100.00
2019-01-18T04:34:48.207Z,100.00
2019-01-18T04:35:54.601Z,100.00
2019-01-18T04:37:00.573Z,100.00
2019-01-18T04:38:07.761Z,100.00
2019-01-18T04:39:14.098Z,100.00
2019-01-18T04:40:25.155Z,100.00
2019-01-18T04:41:31.550Z,100.00
2019-01-18T04:42:37.896Z,100.00
2019-01-18T04:43:44.227Z,100.00
2019-01-18T04:44:50.604Z,100.00
2019-01-18T04:45:57.119Z,100.00
2019-01-18T04:47:03.483Z,100.00
2019-01-18T04:48:09.856Z,100.00
2019-01-18T04:49:16.257Z,100.00
2019-01-18T04:50:22.010Z,100.00
2019-01-18T04:51:28.384Z,100.00
2019-01-18T04:52:34.723Z,100.00
2019-01-18T04:53:41.091Z,100.00
2019-01-18T04:54:47.423Z,100.00
2019-01-18T04:55:53.785Z,100.00
2019-01-18T04:57:00.147Z,100.00
2019-01-18T04:58:06.532Z,100.00
2019-01-18T04:59:12.871Z,100.00
2019-01-18T05:00:22.322Z,100.00
2019-01-18T05:01:28.741Z,100.00
2019-01-18T05:02:35.138Z,100.00
2019-01-18T05:03:41.525Z,100.00
2019-01-18T05:04:47.890Z,100.00
2019-01-18T05:05:54.265Z,100.00
2019-01-18T05:07:00.455Z,100.00
2019-01-18T05:08:06.884Z,100.00
2019-01-18T05:09:13.267Z,100.00
2019-01-18T05:10:18.957Z,100.00
2019-01-18T05:11:25.356Z,100.00
2019-01-18T05:12:31.830Z,100.00
2019-01-18T05:13:38.214Z,100.00
2019-01-18T05:14:44.532Z,99.51
2019-01-18T05:15:50.896Z,98.65
2019-01-18T05:16:57.289Z,98.25
2019-01-18T05:18:03.723Z,98.13
2019-01-18T05:19:10.075Z,97.58
2019-01-18T05:20:15.748Z,96.54
2019-01-18T05:21:22.157Z,96.50
2019-01-18T05:22:28.561Z,96.67
2019-01-18T05:23:34.918Z,96.64
2019-01-18T05:24:41.264Z,96.05
2019-01-18T05:25:47.677Z,96.39
2019-01-18T05:26:54.038Z,95.94
2019-01-18T05:28:00.355Z,95.98
2019-01-18T05:29:06.983Z,95.82
2019-01-18T05:30:13.441Z,95.60
2019-01-18T05:31:19.991Z,95.70
2019-01-18T05:32:26.541Z,95.28
2019-01-18T05:33:32.582Z,94.38
2019-01-18T05:34:38.939Z,93.58
2019-01-18T05:35:48.269Z,93.77
2019-01-18T05:36:54.685Z,93.55
2019-01-18T05:38:00.696Z,93.31
2019-01-18T05:39:06.685Z,93.46
2019-01-18T05:40:13.333Z,92.80
2019-01-18T05:41:19.674Z,93.33
2019-01-18T05:42:26.035Z,93.65
2019-01-18T05:43:32.377Z,93.74
2019-01-18T05:44:38.748Z,93.14
2019-01-18T05:45:44.854Z,92.96
2019-01-18T05:46:51.198Z,92.82
2019-01-18T05:47:58.578Z,92.79
2019-01-18T05:49:05.328Z,93.17
2019-01-18T05:50:11.732Z,92.75
2019-01-18T05:51:17.834Z,91.78
2019-01-18T05:52:24.168Z,91.64
2019-01-18T05:53:30.299Z,89.98
2019-01-18T05:54:36.704Z,89.48
2019-01-18T05:55:43.155Z,89.18
2019-01-18T05:56:49.526Z,89.41
2019-01-18T05:57:55.942Z,88.83
2019-01-18T05:59:02.317Z,88.97
2019-01-18T06:00:16.290Z,88.55
2019-01-18T06:01:22.777Z,87.68
2019-01-18T06:02:28.916Z,87.76
2019-01-18T06:03:35.141Z,88.31
2019-01-18T06:04:40.948Z,88.35
2019-01-18T06:05:46.776Z,88.57
2019-01-18T06:06:53.206Z,88.22
2019-01-18T06:07:59.640Z,88.06
2019-01-18T06:09:05.816Z,87.54
2019-01-18T06:10:13.537Z,87.16
2019-01-18T06:11:18.398Z,86.39
2019-01-18T06:12:25.697Z,86.39
2019-01-18T06:13:32.048Z,87.36
2019-01-18T06:14:38.362Z,88.21
2019-01-18T06:15:44.765Z,89.15
2019-01-18T06:16:51.132Z,89.46
2019-01-18T06:17:57.643Z,89.81
2019-01-18T06:19:04.040Z,88.90
2019-01-18T06:20:10.698Z,88.44
2019-01-18T06:21:17.049Z,87.36
2019-01-18T06:22:23.511Z,86.53
2019-01-18T06:23:29.888Z,86.01
2019-01-18T06:24:36.325Z,85.87
2019-01-18T06:25:42.747Z,85.60
2019-01-18T06:26:48.826Z,85.53
2019-01-18T06:27:54.850Z,85.74
2019-01-18T06:29:01.257Z,86.36
2019-01-18T06:30:08.193Z,86.65
2019-01-18T06:31:14.753Z,86.22
2019-01-18T06:32:21.144Z,85.68
2019-01-18T06:33:27.527Z,86.45
2019-01-18T06:34:33.859Z,87.33
2019-01-18T06:35:40.253Z,87.41
2019-01-18T06:36:46.259Z,87.79
2019-01-18T06:37:52.307Z,88.32
2019-01-18T06:38:58.715Z,88.22
2019-01-18T06:40:04.421Z,87.59
2019-01-18T06:41:10.707Z,87.41
2019-01-18T06:42:17.074Z,87.08
2019-01-18T06:43:23.535Z,87.13
2019-01-18T06:44:29.891Z,87.51
2019-01-18T06:45:36.259Z,87.40
2019-01-18T06:46:42.723Z,87.26
2019-01-18T06:47:49.079Z,88.23
2019-01-18T06:48:56.167Z,88.10
2019-01-18T06:50:02.522Z,88.43
2019-01-18T06:51:08.858Z,88.36
2019-01-18T06:52:15.836Z,88.73
2019-01-18T06:53:22.183Z,89.40
2019-01-18T06:54:28.249Z,89.22
2019-01-18T06:55:34.284Z,88.80
2019-01-18T06:56:40.771Z,88.00
2019-01-18T06:57:46.481Z,87.80
2019-01-18T06:58:52.813Z,88.10
2019-01-18T06:59:59.135Z,89.57
2019-01-18T07:01:08.623Z,90.22
2019-01-18T07:02:11.182Z,90.63
2019-01-18T07:03:18.086Z,90.36
2019-01-18T07:04:24.467Z,90.75
2019-01-18T07:05:30.773Z,91.06
2019-01-18T07:06:37.093Z,90.62
2019-01-18T07:07:43.166Z,90.61
2019-01-18T07:08:49.217Z,90.72
2019-01-18T07:09:55.596Z,91.30
2019-01-18T07:11:01.937Z,90.10
2019-01-18T07:12:07.943Z,90.10
2019-01-18T07:13:14.600Z,90.11
2019-01-18T07:14:21.652Z,90.19
2019-01-18T07:15:28.018Z,89.86
2019-01-18T07:16:34.445Z,90.21
2019-01-18T07:17:40.149Z,90.74
2019-01-18T07:18:46.534Z,91.33
2019-01-18T07:19:52.935Z,91.37
2019-01-18T07:20:59.271Z,91.21
2019-01-18T07:22:05.288Z,92.36
2019-01-18T07:23:11.635Z,92.79
2019-01-18T07:24:18.515Z,92.49
2019-01-18T07:25:25.140Z,92.09
2019-01-18T07:26:31.503Z,92.15
2019-01-18T07:27:37.826Z,92.84
2019-01-18T07:28:44.273Z,92.72
2019-01-18T07:29:50.721Z,91.46
2019-01-18T07:30:57.184Z,90.37
2019-01-18T07:32:03.526Z,90.11
2019-01-18T07:33:09.522Z,90.19
2019-01-18T07:34:15.875Z,90.30
2019-01-18T07:35:22.206Z,90.25
2019-01-18T07:36:28.543Z,90.41
2019-01-18T07:37:34.858Z,90.87
2019-01-18T07:38:41.469Z,91.40
2019-01-18T07:39:48.036Z,92.04
2019-01-18T07:40:54.371Z,91.53
2019-01-18T07:42:00.669Z,90.55
2019-01-18T07:43:06.713Z,89.84
2019-01-18T07:44:13.804Z,89.66
2019-01-18T07:45:20.283Z,90.00
2019-01-18T07:46:26.643Z,89.86
2019-01-18T07:47:33.038Z,89.25
2019-01-18T07:48:39.403Z,89.06
2019-01-18T07:49:45.736Z,89.11
2019-01-18T07:50:51.863Z,88.57
2019-01-18T07:51:57.910Z,88.62
2019-01-18T07:53:03.531Z,88.81
2019-01-18T07:54:09.959Z,88.70
2019-01-18T07:55:16.019Z,88.85
2019-01-18T07:56:22.342Z,89.66
2019-01-18T07:57:28.692Z,89.92
2019-01-18T07:58:35.871Z,89.65
2019-01-18T07:59:42.762Z,89.42
2019-01-18T08:00:49.109Z,89.34
2019-01-18T08:01:55.525Z,89.36
2019-01-18T08:03:01.876Z,89.02
2019-01-18T08:04:08.201Z,88.13
2019-01-18T08:05:14.282Z,87.75
2019-01-18T08:06:20.291Z,87.76
2019-01-18T08:07:26.270Z,87.60
2019-01-18T08:08:32.700Z,88.50
2019-01-18T08:09:39.070Z,88.47
2019-01-18T08:10:45.451Z,88.51
2019-01-18T08:11:51.821Z,88.02
2019-01-18T08:12:57.850Z,87.78
2019-01-18T08:14:03.633Z,87.49
2019-01-18T08:15:09.949Z,87.47
2019-01-18T08:16:16.301Z,86.88
2019-01-18T08:17:22.781Z,87.09
2019-01-18T08:18:29.238Z,87.15
2019-01-18T08:19:35.571Z,86.63
2019-01-18T08:20:41.562Z,87.62
2019-01-18T08:21:47.895Z,86.99
2019-01-18T08:22:54.043Z,86.50
2019-01-18T08:24:00.485Z,86.75
2019-01-18T08:25:06.145Z,87.15
2019-01-18T08:26:12.536Z,87.16
2019-01-18T08:27:18.574Z,86.19
2019-01-18T08:28:24.938Z,86.54
2019-01-18T08:29:31.298Z,87.04
2019-01-18T08:30:37.267Z,86.22
2019-01-18T08:31:43.812Z,86.39
2019-01-18T08:32:49.837Z,86.70
2019-01-18T08:33:55.877Z,86.63
2019-01-18T08:35:02.246Z,86.38
2019-01-18T08:36:08.267Z,85.48
2019-01-18T08:37:14.269Z,85.54
2019-01-18T08:38:20.607Z,84.94
2019-01-18T08:39:26.954Z,85.27
2019-01-18T08:40:33.335Z,85.46
2019-01-18T08:41:39.680Z,85.96
2019-01-18T08:42:46.810Z,85.34
2019-01-18T08:43:53.175Z,84.72
2019-01-18T08:44:59.552Z,85.00
2019-01-18T08:46:05.509Z,85.62
2019-01-18T08:47:11.908Z,86.20
2019-01-18T08:48:18.307Z,85.91
2019-01-18T08:49:24.646Z,85.91
2019-01-18T08:50:30.309Z,85.53
2019-01-18T08:51:36.638Z,85.09
2019-01-18T08:52:42.968Z,84.63
2019-01-18T08:53:49.302Z,85.67
2019-01-18T08:54:55.694Z,86.21
2019-01-18T08:56:02.079Z,86.43
2019-01-18T08:57:08.428Z,85.81
2019-01-18T08:58:14.800Z,86.12
2019-01-18T08:59:21.218Z,85.18
2019-01-18T09:00:29.404Z,84.22
2019-01-18T09:01:36.036Z,83.76
2019-01-18T09:02:42.424Z,84.86
2019-01-18T09:03:49.415Z,85.58
2019-01-18T09:04:55.779Z,85.92
2019-01-18T09:06:02.082Z,85.00
2019-01-18T09:07:08.471Z,84.86
2019-01-18T09:08:14.066Z,85.25
2019-01-18T09:09:20.468Z,85.83
2019-01-18T09:10:26.164Z,85.88
2019-01-18T09:11:32.609Z,86.37
2019-01-18T09:12:38.927Z,86.02
2019-01-18T09:13:45.338Z,86.36
2019-01-18T09:14:51.719Z,85.85
2019-01-18T09:15:58.091Z,86.19
2019-01-18T09:17:04.054Z,85.54
2019-01-18T09:18:10.043Z,85.23
2019-01-18T09:19:16.451Z,84.87
2019-01-18T09:20:22.921Z,85.92
2019-01-18T09:21:29.374Z,85.46
2019-01-18T09:22:35.787Z,85.66
2019-01-18T09:23:41.787Z,85.33
2019-01-18T09:24:48.203Z,85.60
2019-01-18T09:25:54.553Z,84.68
2019-01-18T09:27:00.954Z,84.90
2019-01-18T09:28:07.324Z,85.18
2019-01-18T09:29:13.707Z,84.88
2019-01-18T09:30:20.036Z,84.81
2019-01-18T09:31:26.379Z,83.19
2019-01-18T09:32:32.697Z,83.12
2019-01-18T09:33:39.028Z,83.70
2019-01-18T09:34:45.440Z,83.26
2019-01-18T09:35:51.449Z,83.30
2019-01-18T09:36:57.814Z,83.60
2019-01-18T09:38:03.499Z,84.01
2019-01-18T09:39:09.576Z,83.23
2019-01-18T09:40:15.209Z,83.05
2019-01-18T09:41:21.504Z,83.74
2019-01-18T09:42:27.885Z,83.75
2019-01-18T09:43:34.408Z,84.48
2019-01-18T09:44:40.798Z,83.85
2019-01-18T09:45:47.895Z,83.26
2019-01-18T09:46:54.742Z,83.23
2019-01-18T09:48:01.575Z,81.92
2019-01-18T09:49:07.931Z,82.46
2019-01-18T09:50:15.344Z,80.75
2019-01-18T09:51:21.688Z,80.45
2019-01-18T09:52:28.041Z,80.91
2019-01-18T09:53:34.019Z,81.03
2019-01-18T09:54:40.406Z,80.85
2019-01-18T09:55:46.779Z,79.91
2019-01-18T09:56:53.097Z,79.57
2019-01-18T09:57:59.446Z,79.73
2019-01-18T09:59:05.439Z,81.00
2019-01-18T10:00:23.773Z,79.63
2019-01-18T10:01:30.070Z,80.34
2019-01-18T10:02:36.363Z,80.52
2019-01-18T10:03:42.705Z,80.43
2019-01-18T10:04:49.078Z,81.42
2019-01-18T10:05:55.425Z,81.45
2019-01-18T10:07:01.791Z,81.55
2019-01-18T10:08:07.434Z,81.48
2019-01-18T10:09:13.796Z,81.28
2019-01-18T10:10:19.437Z,80.87
2019-01-18T10:11:26.314Z,80.76
2019-01-18T10:12:32.634Z,80.07
2019-01-18T10:13:38.950Z,79.75
2019-01-18T10:14:45.338Z,79.85
2019-01-18T10:15:51.000Z,79.11
2019-01-18T10:16:57.027Z,78.18
2019-01-18T10:18:03.077Z,79.78
2019-01-18T10:19:09.454Z,80.23
2019-01-18T10:20:15.118Z,78.59
2019-01-18T10:21:21.496Z,78.88
2019-01-18T10:22:27.830Z,79.32
2019-01-18T10:23:33.832Z,79.37
2019-01-18T10:24:40.210Z,79.98
2019-01-18T10:25:46.553Z,79.06
2019-01-18T10:26:52.897Z,79.45
2019-01-18T10:28:00.582Z,78.29
2019-01-18T10:29:07.474Z,78.64
2019-01-18T10:30:24.211Z,77.79
2019-01-18T10:31:30.535Z,76.68
2019-01-18T10:32:36.886Z,76.28
2019-01-18T10:33:43.302Z,77.71
2019-01-18T10:34:49.683Z,76.90
2019-01-18T10:35:55.647Z,76.08
2019-01-18T10:37:01.969Z,76.49
2019-01-18T10:38:07.602Z,76.87
2019-01-18T10:39:13.932Z,77.91
2019-01-18T10:40:19.559Z,75.84
2019-01-18T10:41:25.970Z,75.60
2019-01-18T10:42:31.591Z,74.43
2019-01-18T10:43:37.947Z,73.64
2019-01-18T10:44:44.287Z,73.33
2019-01-18T10:45:50.244Z,74.72
2019-01-18T10:46:56.642Z,76.10
2019-01-18T10:48:03.097Z,77.94
2019-01-18T10:49:10.014Z,76.58
2019-01-18T10:50:15.970Z,75.93
2019-01-18T10:51:22.358Z,74.42
2019-01-18T10:52:28.351Z,73.92
2019-01-18T10:53:34.675Z,73.69
2019-01-18T10:54:41.008Z,75.73
2019-01-18T10:55:47.361Z,75.35
2019-01-18T10:56:53.715Z,76.33
2019-01-18T10:57:59.795Z,73.16
2019-01-18T10:59:06.165Z,72.78
2019-01-18T11:00:11.836Z,72.03
2019-01-18T11:01:18.268Z,72.95
2019-01-18T11:02:24.669Z,73.43
2019-01-18T11:03:31.157Z,73.33
2019-01-18T11:04:36.823Z,73.75
2019-01-18T11:05:43.244Z,72.61
2019-01-18T11:06:49.647Z,72.77
2019-01-18T11:07:55.955Z,71.98
2019-01-18T11:09:02.263Z,71.54
2019-01-18T11:10:10.002Z,71.54
2019-01-18T11:11:16.800Z,71.33
2019-01-18T11:12:23.137Z,72.38
2019-01-18T11:13:29.562Z,72.35
2019-01-18T11:14:35.251Z,72.14
2019-01-18T11:15:41.583Z,72.24
2019-01-18T11:16:47.924Z,73.15
2019-01-18T11:17:54.348Z,72.22
2019-01-18T11:19:00.732Z,73.55
2019-01-18T11:20:08.983Z,73.06
2019-01-18T11:21:14.599Z,72.83
2019-01-18T11:22:20.955Z,72.83
2019-01-18T11:23:27.377Z,73.51
2019-01-18T11:24:33.792Z,72.79
2019-01-18T11:25:39.722Z,73.19
2019-01-18T11:26:46.111Z,72.79
2019-01-18T11:27:52.463Z,71.26
2019-01-18T11:28:58.967Z,71.24
2019-01-18T11:30:13.412Z,71.15
2019-01-18T11:31:23.323Z,72.67
2019-01-18T11:32:25.664Z,72.46
2019-01-18T11:33:31.654Z,73.24
2019-01-18T11:34:38.063Z,73.40
2019-01-18T11:35:43.698Z,74.06
2019-01-18T11:36:49.985Z,72.69
2019-01-18T11:37:55.581Z,72.64
2019-01-18T11:39:01.975Z,71.93
2019-01-18T11:40:10.571Z,71.66
2019-01-18T11:41:16.558Z,72.56
2019-01-18T11:42:22.913Z,72.27
2019-01-18T11:43:29.288Z,70.54
2019-01-18T11:44:35.601Z,70.38
2019-01-18T11:45:41.926Z,71.25
2019-01-18T11:46:48.229Z,72.17
2019-01-18T11:47:54.619Z,71.00
2019-01-18T11:49:00.599Z,71.77
2019-01-18T11:50:13.084Z,71.75
2019-01-18T11:51:19.544Z,71.72
2019-01-18T11:52:26.840Z,72.05
2019-01-18T11:53:33.791Z,71.77
2019-01-18T11:54:43.994Z,71.58
2019-01-18T11:55:46.682Z,72.16
2019-01-18T11:56:53.073Z,71.75
2019-01-18T11:57:59.465Z,71.04
2019-01-18T11:59:05.890Z,71.11
2019-01-18T12:00:22.717Z,71.68
2019-01-18T12:01:29.053Z,71.41
2019-01-18T12:02:35.130Z,71.75
2019-01-18T12:03:41.857Z,71.68
2019-01-18T12:04:48.293Z,71.33
2019-01-18T12:05:54.640Z,71.24
2019-01-18T12:07:00.983Z,71.21
2019-01-18T12:08:06.966Z,70.54
2019-01-18T12:09:13.291Z,71.74
2019-01-18T12:10:20.304Z,71.41
2019-01-18T12:11:26.690Z,70.85
2019-01-18T12:12:33.003Z,69.32
2019-01-18T12:13:39.861Z,69.86
2019-01-18T12:14:46.343Z,70.56
2019-01-18T12:15:52.737Z,69.74
2019-01-18T12:16:59.601Z,70.63
2019-01-18T12:18:05.067Z,70.46
2019-01-18T12:19:11.412Z,69.63
2019-01-18T12:20:17.716Z,68.81
2019-01-18T12:21:24.177Z,67.68
2019-01-18T12:22:29.871Z,68.96
2019-01-18T12:23:35.889Z,70.43
2019-01-18T12:24:42.210Z,70.52
2019-01-18T12:25:48.585Z,69.50
2019-01-18T12:26:54.929Z,69.10
2019-01-18T12:28:01.288Z,68.53
2019-01-18T12:29:07.292Z,67.94
2019-01-18T12:30:17.771Z,67.73
2019-01-18T12:31:24.143Z,69.01
2019-01-18T12:32:30.507Z,70.07
2019-01-18T12:33:36.862Z,69.94
2019-01-18T12:34:43.183Z,69.63
2019-01-18T12:35:49.578Z,68.97
2019-01-18T12:36:58.891Z,68.73
2019-01-18T12:38:01.555Z,68.74
2019-01-18T12:39:07.942Z,67.88
2019-01-18T12:40:14.377Z,68.73
2019-01-18T12:41:20.708Z,68.15
2019-01-18T12:42:27.053Z,68.87
2019-01-18T12:43:33.407Z,69.51
2019-01-18T12:44:39.817Z,68.95
2019-01-18T12:45:46.176Z,68.46
2019-01-18T12:46:52.916Z,68.88
2019-01-18T12:47:59.297Z,67.92
2019-01-18T12:49:06.270Z,67.61
2019-01-18T12:50:26.162Z,67.25
2019-01-18T12:51:32.512Z,67.38
2019-01-18T12:52:38.604Z,66.92
2019-01-18T12:53:44.569Z,67.85
2019-01-18T12:54:50.941Z,65.88
2019-01-18T12:55:57.329Z,65.72
2019-01-18T12:57:03.300Z,65.72
2019-01-18T12:58:09.345Z,66.05
2019-01-18T12:59:15.692Z,66.95
2019-01-18T13:00:21.471Z,67.75
2019-01-18T13:01:27.594Z,67.87
2019-01-18T13:02:35.416Z,65.86
2019-01-18T13:03:40.381Z,66.71
2019-01-18T13:04:46.708Z,64.66
2019-01-18T13:05:52.804Z,64.79
2019-01-18T13:06:59.188Z,64.97
2019-01-18T13:08:05.257Z,65.37
2019-01-18T13:09:11.762Z,65.02
2019-01-18T13:10:18.709Z,64.52
2019-01-18T13:11:25.203Z,63.26
2019-01-18T13:12:31.572Z,62.79
2019-01-18T13:13:38.467Z,61.40
2019-01-18T13:14:44.828Z,60.81
2019-01-18T13:15:51.525Z,60.58
2019-01-18T13:16:59.075Z,59.80
2019-01-18T13:18:05.573Z,59.79
2019-01-18T13:19:12.933Z,60.49
2019-01-18T13:20:20.043Z,61.44
2019-01-18T13:21:26.505Z,62.19
2019-01-18T13:22:32.636Z,60.49
2019-01-18T13:23:39.024Z,60.98
2019-01-18T13:24:45.362Z,59.23
2019-01-18T13:25:51.759Z,59.96
2019-01-18T13:26:58.152Z,60.68
2019-01-18T13:28:03.856Z,60.08
2019-01-18T13:29:10.254Z,60.83
2019-01-18T13:30:15.967Z,61.21
2019-01-18T13:31:22.384Z,60.35
2019-01-18T13:32:28.079Z,60.24
2019-01-18T13:33:33.855Z,60.29
2019-01-18T13:34:40.198Z,59.85
2019-01-18T13:35:46.256Z,59.13
2019-01-18T13:36:52.652Z,60.04
2019-01-18T13:37:58.638Z,59.25
2019-01-18T13:39:04.308Z,57.88
2019-01-18T13:40:10.935Z,57.67
2019-01-18T13:41:16.884Z,58.56
2019-01-18T13:42:23.233Z,58.35
2019-01-18T13:43:29.576Z,57.46
2019-01-18T13:44:35.651Z,57.77
2019-01-18T13:45:41.978Z,58.41
2019-01-18T13:46:48.402Z,59.19
2019-01-18T13:47:54.428Z,58.90
2019-01-18T13:49:00.809Z,57.93
2019-01-18T13:50:09.209Z,58.07
2019-01-18T13:51:15.718Z,59.08
2019-01-18T13:52:22.145Z,59.49
2019-01-18T13:53:28.442Z,59.93
2019-01-18T13:54:34.817Z,59.51
2019-01-18T13:55:41.170Z,58.79
2019-01-18T13:56:47.546Z,59.14
2019-01-18T13:57:53.611Z,59.39
2019-01-18T13:59:00.122Z,59.48
2019-01-18T14:00:05.800Z,59.28
2019-01-18T14:01:11.861Z,59.57
2019-01-18T14:02:18.247Z,60.73
2019-01-18T14:03:24.254Z,60.87
2019-01-18T14:04:30.564Z,61.28
2019-01-18T14:05:36.952Z,61.72
2019-01-18T14:06:43.282Z,61.73
2019-01-18T14:07:53.215Z,62.63
2019-01-18T14:08:55.907Z,63.21
2019-01-18T14:10:03.269Z,63.34
2019-01-18T14:11:09.271Z,63.26
2019-01-18T14:12:15.702Z,62.63